createdAt,value
2022-11-27T00:00:44.892Z,43.47
2022-11-27T00:03:41.461Z,50.42
2022-11-27T00:06:29.180Z,45.30
2022-11-27T00:09:16.591Z,35.05
2022-11-27T00:12:03.354Z,32.80
2022-11-27T00:14:55.592Z,32.00
2022-11-27T00:17:42.288Z,35.40
2022-11-27T00:20:29.930Z,31.52
2022-11-27T00:23:20.485Z,31.85
2022-11-27T00:26:07.798Z,30.40
2022-11-27T00:28:54.544Z,31.58
2022-11-27T00:31:41.164Z,31.20
2022-11-27T00:34:27.951Z,32.13
2022-11-27T00:37:15.086Z,37.83
2022-11-27T00:40:08.225Z,32.05
2022-11-27T00:42:54.711Z,34.28
2022-11-27T00:45:41.520Z,34.30
2022-11-27T00:48:28.311Z,35.92
2022-11-27T00:51:21.617Z,34.85
2022-11-27T00:54:08.708Z,33.33
2022-11-27T00:56:58.190Z,35.80
2022-11-27T00:59:44.606Z,37.13
2022-11-27T01:02:34.509Z,37.03
2022-11-27T01:05:23.753Z,35.30
2022-11-27T01:08:12.466Z,33.15
2022-11-27T01:10:59.957Z,32.80
2022-11-27T01:13:49.975Z,33.08
2022-11-27T01:16:42.723Z,33.30
2022-11-27T01:19:29.984Z,34.83
2022-11-27T01:22:19.032Z,37.17
2022-11-27T01:25:06.492Z,36.70
2022-11-27T01:27:53.507Z,41.42
2022-11-27T01:30:40.424Z,36.45
2022-11-27T01:33:26.629Z,36.30
2022-11-27T01:36:15.280Z,35.75
2022-11-27T01:39:02.308Z,35.28
2022-11-27T01:41:52.614Z,38.65
2022-11-27T01:44:38.926Z,36.03
2022-11-27T01:47:38.910Z,38.05
2022-11-27T01:50:36.417Z,35.72
2022-11-27T01:53:23.310Z,37.90
2022-11-27T01:56:09.720Z,48.40
2022-11-27T01:58:57.832Z,51.47
2022-11-27T02:01:44.172Z,43.17
2022-11-27T02:04:31.628Z,38.78
2022-11-27T02:07:18.250Z,32.95
2022-11-27T02:10:06.929Z,34.30
2022-11-27T02:12:59.604Z,33.95
2022-11-27T02:16:18.869Z,32.03
2022-11-27T02:19:52.656Z,32.30
2022-11-27T02:23:06.374Z,35.20
2022-11-27T02:26:18.646Z,32.97
2022-11-27T02:29:08.480Z,33.05
2022-11-27T02:32:08.365Z,31.13
2022-11-27T02:35:03.452Z,27.95
2022-11-27T02:37:54.150Z,26.48
2022-11-27T02:40:49.110Z,26.83
2022-11-27T02:43:41.542Z,26.40
2022-11-27T02:46:31.169Z,25.42
2022-11-27T02:49:21.533Z,26.48
2022-11-27T02:52:13.093Z,24.67
2022-11-27T02:55:05.141Z,28.75
2022-11-27T02:57:53.841Z,31.17
2022-11-27T03:00:44.115Z,26.42
2022-11-27T03:03:38.059Z,38.60
2022-11-27T03:06:33.785Z,29.08
2022-11-27T03:09:50.198Z,27.05
2022-11-27T03:12:39.795Z,27.60
2022-11-27T03:15:37.883Z,29.67
2022-11-27T03:18:39.934Z,25.95
2022-11-27T03:21:36.350Z,29.73
2022-11-27T03:24:22.630Z,34.15
2022-11-27T03:27:10.134Z,28.10
2022-11-27T03:29:59.204Z,28.70
2022-11-27T03:32:48.617Z,27.05
2022-11-27T03:35:34.873Z,26.40
2022-11-27T03:38:21.905Z,25.98
2022-11-27T03:41:41.685Z,29.05
2022-11-27T03:44:50.959Z,26.40
2022-11-27T03:47:59.663Z,25.98
2022-11-27T03:50:55.544Z,25.63
2022-11-27T03:53:51.504Z,30.77
2022-11-27T03:56:40.848Z,28.45
2022-11-27T03:59:30.889Z,30.42
2022-11-27T04:02:35.860Z,29.50
2022-11-27T04:05:22.555Z,31.40
2022-11-27T04:08:12.390Z,35.10
2022-11-27T04:10:58.766Z,33.75
2022-11-27T04:13:47.399Z,31.73
2022-11-27T04:16:33.746Z,30.30
2022-11-27T04:19:20.579Z,28.60
2022-11-27T04:22:06.692Z,28.80
2022-11-27T04:24:53.198Z,30.90
2022-11-27T04:27:39.690Z,27.65
2022-11-27T04:30:26.395Z,31.13
2022-11-27T04:33:12.996Z,31.90
2022-11-27T04:36:00.403Z,33.30
2022-11-27T04:38:49.004Z,32.97
2022-11-27T04:41:35.707Z,31.67
2022-11-27T04:44:24.819Z,32.53
2022-11-27T04:47:14.253Z,31.83
2022-11-27T04:50:00.752Z,30.85
2022-11-27T04:52:47.623Z,30.23
2022-11-27T04:55:37.796Z,32.92
2022-11-27T04:58:24.405Z,32.17
2022-11-27T05:01:10.741Z,33.58
2022-11-27T05:03:57.413Z,30.45
2022-11-27T05:06:43.777Z,32.30
2022-11-27T05:09:30.629Z,33.38
2022-11-27T05:12:16.908Z,33.53
2022-11-27T05:15:08.396Z,34.83
2022-11-27T05:17:54.926Z,33.42
2022-11-27T05:20:43.175Z,35.67
2022-11-27T05:23:33.084Z,39.28
2022-11-27T05:26:19.967Z,40.87
2022-11-27T05:29:07.492Z,37.33
2022-11-27T05:31:54.297Z,40.58
2022-11-27T05:34:43.678Z,38.88
2022-11-27T05:37:30.572Z,39.47
2022-11-27T05:40:17.058Z,38.83
2022-11-27T05:43:04.070Z,39.13
2022-11-27T05:45:50.744Z,45.30
2022-11-27T05:48:37.589Z,59.83
2022-11-27T05:51:27.180Z,42.78
2022-11-27T05:54:14.184Z,39.30
2022-11-27T05:57:00.441Z,40.75
2022-11-27T05:59:47.123Z,42.05
2022-11-27T06:02:33.723Z,71.60
2022-11-27T06:05:20.695Z,53.88
2022-11-27T06:08:07.664Z,47.95
2022-11-27T06:10:54.456Z,49.97
2022-11-27T06:13:41.044Z,64.55
2022-11-27T06:16:30.990Z,46.58
2022-11-27T06:19:17.241Z,41.60
2022-11-27T06:22:04.080Z,36.72
2022-11-27T06:24:50.895Z,33.88
2022-11-27T06:27:37.682Z,35.83
2022-11-27T06:30:23.996Z,32.97
2022-11-27T06:33:10.798Z,32.05
2022-11-27T06:35:57.305Z,30.88
2022-11-27T06:38:44.221Z,31.55
2022-11-27T06:41:30.869Z,31.77
2022-11-27T06:44:17.265Z,29.17
2022-11-27T06:47:03.636Z,31.98
2022-11-27T06:49:50.139Z,29.77
2022-11-27T06:52:40.409Z,31.10
2022-11-27T06:55:27.427Z,30.30
2022-11-27T06:58:13.757Z,32.35
2022-11-27T07:01:11.827Z,26.50
2022-11-27T07:03:59.967Z,28.50
2022-11-27T07:06:46.794Z,31.65
2022-11-27T07:09:33.114Z,25.98
2022-11-27T07:12:19.954Z,28.17
2022-11-27T07:15:08.481Z,25.38
2022-11-27T07:17:54.935Z,29.42
2022-11-27T07:20:56.284Z,27.75
2022-11-27T07:23:43.742Z,27.58
2022-11-27T07:26:30.450Z,24.15
2022-11-27T07:29:16.983Z,24.23
2022-11-27T07:32:03.840Z,25.55
2022-11-27T07:34:50.427Z,63.53
2022-11-27T07:37:37.027Z,28.08
2022-11-27T07:40:24.002Z,28.23
2022-11-27T07:43:10.292Z,26.45
2022-11-27T07:45:57.149Z,27.02
2022-11-27T07:48:44.060Z,24.63
2022-11-27T07:51:30.727Z,24.48
2022-11-27T07:54:17.293Z,25.92
2022-11-27T07:57:04.088Z,24.50
2022-11-27T07:59:50.779Z,23.85
2022-11-27T08:02:40.094Z,23.42
2022-11-27T08:05:26.376Z,22.90
2022-11-27T08:08:13.317Z,24.27
2022-11-27T08:10:59.725Z,24.50
2022-11-27T08:13:46.513Z,24.65
2022-11-27T08:16:36.421Z,24.45
2022-11-27T08:19:23.952Z,23.55
2022-11-27T08:22:15.268Z,22.67
2022-11-27T08:25:02.215Z,23.23
2022-11-27T08:27:50.883Z,26.58
2022-11-27T08:30:37.406Z,27.63
2022-11-27T08:33:23.872Z,26.60
2022-11-27T08:36:16.255Z,29.38
2022-11-27T08:39:04.202Z,28.42
2022-11-27T08:41:50.781Z,30.13
2022-11-27T08:44:37.218Z,27.20
2022-11-27T08:47:23.999Z,27.38
2022-11-27T08:50:10.576Z,27.85
2022-11-27T08:52:57.605Z,28.73
2022-11-27T08:55:44.498Z,26.60
2022-11-27T08:58:31.204Z,27.85
2022-11-27T09:01:21.242Z,35.13
2022-11-27T09:04:08.033Z,45.28
2022-11-27T09:06:58.506Z,78.80
2022-11-27T09:09:45.632Z,92.40
2022-11-27T09:12:32.119Z,83.63
2022-11-27T09:15:19.287Z,43.15
2022-11-27T09:18:06.207Z,37.85
2022-11-27T09:21:12.911Z,33.67
2022-11-27T09:24:03.274Z,34.42
2022-11-27T09:26:50.312Z,96.07
2022-11-27T09:29:36.817Z,44.53
2022-11-27T09:32:23.659Z,98.07
2022-11-27T09:35:10.661Z,51.22
2022-11-27T09:37:57.527Z,68.47
2022-11-27T09:40:51.651Z,94.68
2022-11-27T09:43:44.930Z,56.45
2022-11-27T09:46:34.552Z,47.92
2022-11-27T09:49:37.096Z,77.28
2022-11-27T09:52:40.389Z,57.13
2022-11-27T09:55:36.481Z,52.20
2022-11-27T09:58:40.370Z,41.72
2022-11-27T10:01:36.530Z,47.13
2022-11-27T10:04:39.852Z,80.60
2022-11-27T10:08:06.066Z,51.90
2022-11-27T10:11:31.358Z,47.85
2022-11-27T10:14:31.836Z,72.07
2022-11-27T10:17:32.400Z,49.92
2022-11-27T10:20:49.610Z,50.00
2022-11-27T10:24:08.854Z,50.72
2022-11-27T10:26:59.256Z,48.95
2022-11-27T10:29:52.808Z,61.60
2022-11-27T10:32:55.949Z,47.05
2022-11-27T10:35:43.707Z,38.60
2022-11-27T10:38:33.432Z,66.68
2022-11-27T10:41:53.658Z,72.20
2022-11-27T10:45:02.208Z,34.03
2022-11-27T10:47:49.078Z,55.00
2022-11-27T10:50:40.308Z,39.92
2022-11-27T10:53:33.928Z,46.83
2022-11-27T10:57:02.106Z,35.67
2022-11-27T11:00:05.402Z,30.50
2022-11-27T11:03:06.316Z,30.10
2022-11-27T11:09:22.293Z,27.63
2022-11-27T11:12:18.553Z,24.27
2022-11-27T11:15:12.432Z,26.13
2022-11-27T11:17:59.427Z,28.23
2022-11-27T11:20:55.313Z,22.08
2022-11-27T11:23:42.268Z,23.20
2022-11-27T11:26:38.988Z,21.55
2022-11-27T11:29:43.469Z,20.83
2022-11-27T11:32:36.666Z,23.05
2022-11-27T11:35:33.184Z,24.63
2022-11-27T11:38:26.410Z,24.60
2022-11-27T11:41:13.847Z,22.42
2022-11-27T11:44:04.515Z,24.42
2022-11-27T11:46:55.394Z,32.85
2022-11-27T11:49:44.664Z,27.77
2022-11-27T11:52:56.334Z,23.20
2022-11-27T11:56:11.779Z,30.55
2022-11-27T11:59:11.576Z,24.13
2022-11-27T12:02:21.459Z,40.13
2022-11-27T12:05:40.973Z,24.50
2022-11-27T12:08:54.630Z,23.00
2022-11-27T12:12:02.786Z,26.70
2022-11-27T12:14:53.864Z,31.58
2022-11-27T12:17:53.055Z,62.72
2022-11-27T12:21:17.651Z,27.02
2022-11-27T12:24:18.966Z,19.02
2022-11-27T12:27:08.718Z,22.48
2022-11-27T12:30:40.622Z,21.85
2022-11-27T12:33:54.202Z,17.55
2022-11-27T12:36:59.636Z,20.15
2022-11-27T12:40:05.837Z,24.55
2022-11-27T12:42:52.741Z,24.00
2022-11-27T12:45:44.512Z,19.77
2022-11-27T12:48:37.167Z,21.65
2022-11-27T12:51:28.743Z,20.25
2022-11-27T12:54:26.530Z,23.63
2022-11-27T12:57:25.613Z,20.65
2022-11-27T13:00:18.097Z,18.83
2022-11-27T13:03:28.305Z,21.45
2022-11-27T13:06:20.086Z,26.43
2022-11-27T13:09:19.749Z,24.30
2022-11-27T13:12:09.777Z,25.10
2022-11-27T13:15:08.117Z,22.42
2022-11-27T13:18:12.330Z,24.38
2022-11-27T13:21:05.277Z,21.15
2022-11-27T13:23:52.153Z,25.40
2022-11-27T13:27:04.830Z,31.92
2022-11-27T13:29:56.205Z,24.25
2022-11-27T13:32:53.115Z,32.70
2022-11-27T13:35:43.441Z,28.58
2022-11-27T13:38:33.594Z,22.67
2022-11-27T13:41:22.047Z,30.00
2022-11-27T13:44:27.286Z,68.32
2022-11-27T13:47:24.020Z,27.02
2022-11-27T13:50:16.405Z,23.98
2022-11-27T13:53:06.165Z,24.73
2022-11-27T13:55:58.557Z,22.27
2022-11-27T13:58:48.317Z,26.52
2022-11-27T14:01:37.493Z,25.30
2022-11-27T14:04:25.752Z,40.95
2022-11-27T14:07:16.450Z,56.38
2022-11-27T14:10:14.489Z,64.82
2022-11-27T14:13:07.824Z,190.05
2022-11-27T14:16:02.117Z,117.93
2022-11-27T14:18:51.581Z,145.77
2022-11-27T14:21:43.065Z,153.65
2022-11-27T14:24:29.804Z,97.47
2022-11-27T14:27:25.163Z,95.43
2022-11-27T14:30:43.873Z,71.07
2022-11-27T14:33:47.366Z,96.72
2022-11-27T14:36:40.480Z,146.93
2022-11-27T14:39:35.792Z,86.45
2022-11-27T14:42:29.277Z,178.88
2022-11-27T14:45:19.789Z,506.25
2022-11-27T14:48:06.918Z,360.67
2022-11-27T14:50:56.448Z,89.93
2022-11-27T14:53:44.667Z,122.35
2022-11-27T14:56:34.550Z,74.88
2022-11-27T14:59:23.770Z,126.18
2022-11-27T15:02:10.679Z,71.07
2022-11-27T15:05:07.510Z,49.13
2022-11-27T15:07:56.032Z,57.92
2022-11-27T15:10:43.743Z,62.08
2022-11-27T15:13:35.227Z,62.63
2022-11-27T15:16:24.908Z,69.28
2022-11-27T15:19:21.203Z,62.72
2022-11-27T15:22:18.219Z,59.22
2022-11-27T15:25:21.181Z,45.47
2022-11-27T15:28:36.083Z,41.78
2022-11-27T15:31:50.953Z,39.28
2022-11-27T15:34:38.249Z,63.08
2022-11-27T15:37:32.856Z,163.40
2022-11-27T15:40:39.995Z,102.00
2022-11-27T15:43:26.542Z,131.82
2022-11-27T15:46:19.879Z,424.90
2022-11-27T15:49:12.813Z,255.25
2022-11-27T15:52:02.523Z,175.63
2022-11-27T15:54:49.688Z,164.80
2022-11-27T15:57:36.778Z,143.90
2022-11-27T16:00:23.780Z,135.05
2022-11-27T16:03:10.384Z,275.48
2022-11-27T16:06:00.081Z,150.27
2022-11-27T16:08:47.934Z,94.93
2022-11-27T16:11:34.295Z,92.18
2022-11-27T16:14:21.825Z,102.45
2022-11-27T16:17:08.403Z,121.03
2022-11-27T16:19:55.342Z,135.45
2022-11-27T16:22:42.123Z,176.75
2022-11-27T16:25:32.340Z,114.07
2022-11-27T16:28:19.125Z,106.97
2022-11-27T16:31:13.804Z,113.15
2022-11-27T16:34:02.146Z,103.22
2022-11-27T16:36:49.160Z,99.97
2022-11-27T16:39:36.031Z,106.80
2022-11-27T16:42:23.244Z,113.43
2022-11-27T16:45:11.181Z,129.85
2022-11-27T16:47:58.652Z,199.73
2022-11-27T16:50:45.516Z,95.22
2022-11-27T16:53:33.361Z,69.13
2022-11-27T16:56:22.257Z,69.05
2022-11-27T16:59:14.729Z,78.30
2022-11-27T17:02:02.380Z,86.88
2022-11-27T17:04:49.249Z,81.47
2022-11-27T17:07:35.891Z,74.07
2022-11-27T17:10:22.748Z,80.47
2022-11-27T17:13:09.668Z,89.90
2022-11-27T17:15:56.629Z,101.10
2022-11-27T17:18:45.617Z,83.47
2022-11-27T17:21:34.856Z,62.13
2022-11-27T17:24:22.445Z,59.90
2022-11-27T17:27:11.540Z,55.47
2022-11-27T17:29:58.357Z,68.97
2022-11-27T17:32:45.477Z,84.38
2022-11-27T17:35:32.502Z,67.65
2022-11-27T17:38:19.897Z,74.75
2022-11-27T17:41:12.699Z,81.93
2022-11-27T17:44:00.562Z,104.32
2022-11-27T17:46:50.227Z,92.90
2022-11-27T17:49:38.538Z,77.85
2022-11-27T17:52:25.764Z,71.07
2022-11-27T17:55:12.962Z,62.20
2022-11-27T17:57:59.998Z,55.90
2022-11-27T18:00:47.630Z,59.47
2022-11-27T18:03:34.885Z,52.20
2022-11-27T18:06:23.591Z,56.17
2022-11-27T18:09:11.692Z,47.42
2022-11-27T18:11:58.865Z,58.65
2022-11-27T18:14:45.663Z,81.45
2022-11-27T18:17:32.788Z,61.50
2022-11-27T18:20:21.085Z,49.47
2022-11-27T18:23:08.670Z,56.90
2022-11-27T18:25:54.888Z,54.70
2022-11-27T18:28:42.390Z,48.08
2022-11-27T18:31:28.983Z,52.25
2022-11-27T18:34:16.047Z,56.78
2022-11-27T18:37:03.708Z,58.53
2022-11-27T18:39:51.672Z,68.40
2022-11-27T18:42:38.596Z,61.63
2022-11-27T18:45:37.587Z,54.88
2022-11-27T18:48:24.399Z,54.72
2022-11-27T18:51:14.473Z,61.17
2022-11-27T18:54:01.323Z,60.05
2022-11-27T18:56:49.379Z,55.08
2022-11-27T18:59:36.409Z,53.70
2022-11-27T19:02:23.150Z,50.75
2022-11-27T19:05:10.068Z,55.00
2022-11-27T19:07:59.249Z,48.20
2022-11-27T19:10:46.323Z,39.65
2022-11-27T19:13:34.572Z,45.00
2022-11-27T19:16:34.435Z,47.70
2022-11-27T19:22:29.446Z,47.53
2022-11-27T19:25:17.213Z,47.25
2022-11-27T19:28:04.122Z,44.35
2022-11-27T19:30:51.242Z,48.75
2022-11-27T19:33:38.573Z,54.95
2022-11-27T19:36:27.250Z,39.40
2022-11-27T19:39:15.181Z,42.80
2022-11-27T19:42:02.540Z,46.78
2022-11-27T19:44:50.633Z,52.30
2022-11-27T19:47:37.429Z,58.10
2022-11-27T19:50:24.204Z,53.13
2022-11-27T19:53:10.697Z,48.50
2022-11-27T19:55:57.797Z,49.60
2022-11-27T19:58:44.873Z,46.65
2022-11-27T20:01:32.515Z,47.20
2022-11-27T20:04:19.769Z,45.63
2022-11-27T20:07:07.587Z,42.97
2022-11-27T20:09:55.577Z,45.03
2022-11-27T20:12:42.596Z,43.95
2022-11-27T20:15:30.380Z,48.67
2022-11-27T20:18:17.557Z,43.97
2022-11-27T20:21:14.586Z,47.72
2022-11-27T20:24:02.150Z,45.70
2022-11-27T20:26:49.595Z,47.22
2022-11-27T20:29:36.234Z,47.42
2022-11-27T20:32:24.038Z,49.42
2022-11-27T20:35:10.816Z,48.97
2022-11-27T20:37:57.917Z,48.03
2022-11-27T20:40:44.899Z,49.28
2022-11-27T20:43:32.184Z,47.60
2022-11-27T20:46:18.855Z,46.63
2022-11-27T20:49:06.202Z,45.47
2022-11-27T20:51:53.783Z,43.85
2022-11-27T20:54:42.263Z,42.33
2022-11-27T20:57:28.340Z,42.80
2022-11-27T21:00:15.407Z,41.03
2022-11-27T21:03:01.751Z,42.60
2022-11-27T21:05:51.241Z,42.10
2022-11-27T21:08:38.886Z,43.45
2022-11-27T21:11:27.496Z,42.50
2022-11-27T21:14:15.278Z,42.22
2022-11-27T21:17:05.615Z,46.17
2022-11-27T21:19:53.950Z,51.30
2022-11-27T21:22:43.034Z,45.90
2022-11-27T21:25:29.819Z,47.85
2022-11-27T21:28:16.830Z,55.28
2022-11-27T21:31:10.578Z,41.50
2022-11-27T21:33:58.777Z,39.95
2022-11-27T21:36:45.027Z,40.38
2022-11-27T21:39:33.142Z,43.30
2022-11-27T21:42:20.521Z,42.38
2022-11-27T21:45:07.567Z,45.33
2022-11-27T21:47:56.494Z,40.08
2022-11-27T21:50:43.735Z,42.30
2022-11-27T21:53:31.377Z,42.05
2022-11-27T21:56:20.235Z,45.13
2022-11-27T21:59:11.003Z,55.13
2022-11-27T22:01:58.534Z,54.92
2022-11-27T22:04:48.181Z,62.40
2022-11-27T22:07:35.121Z,82.55
2022-11-27T22:10:21.715Z,75.78
2022-11-27T22:13:08.960Z,78.68
2022-11-27T22:15:55.820Z,61.15
2022-11-27T22:18:44.700Z,51.92
2022-11-27T22:21:32.424Z,50.25
2022-11-27T22:24:21.201Z,50.92
2022-11-27T22:27:13.358Z,46.47
2022-11-27T22:30:00.588Z,44.42
2022-11-27T22:32:49.995Z,45.22
2022-11-27T22:35:39.284Z,55.20
2022-11-27T22:38:26.631Z,44.78
2022-11-27T22:41:16.752Z,37.95
2022-11-27T22:44:12.223Z,44.42
2022-11-27T22:46:59.034Z,45.10
2022-11-27T22:49:45.247Z,39.22
2022-11-27T22:52:35.697Z,48.80
2022-11-27T22:55:24.244Z,55.25
2022-11-27T22:58:11.012Z,69.28
2022-11-27T23:00:57.643Z,67.78
2022-11-27T23:03:55.956Z,54.47
2022-11-27T23:06:46.002Z,42.42
2022-11-27T23:09:33.287Z,38.95
2022-11-27T23:12:19.949Z,40.35
2022-11-27T23:15:09.932Z,36.63
2022-11-27T23:17:58.269Z,35.83
2022-11-27T23:20:48.193Z,33.20
2022-11-27T23:23:34.506Z,32.10
2022-11-27T23:26:23.316Z,34.65
2022-11-27T23:29:13.151Z,35.42
2022-11-27T23:32:01.438Z,34.25
2022-11-27T23:34:47.828Z,35.38
2022-11-27T23:37:34.750Z,34.72
2022-11-27T23:40:21.197Z,36.55
2022-11-27T23:43:07.911Z,37.15
2022-11-27T23:45:54.577Z,35.58
2022-11-27T23:48:41.860Z,36.78
2022-11-27T23:51:31.040Z,37.47
2022-11-27T23:54:17.815Z,38.53
2022-11-27T23:57:04.840Z,37.67
2022-11-27T23:59:51.389Z,39.22
